Time;durP1;ratioP1;P1;durP2;ratioP2;P2;SDS_P1;SDS_P2;PMS_P1;PMS_P2;Temp;Humidity;BMP_temperature;BMP_pressure;BME280_temperature;BME280_humidity;BME280_pressure;Samples;Min_cycle;Max_cycle;Signal;HPM_P1;HPM_P2
2023/03/09 00:01:54;;;;;;;20.60;9.77;;;0.70;99.90;;;;;;5021105;28;25072;-74
2023/03/09 00:04:22;;;;;;;17.50;8.43;;;0.70;99.90;;;;;;5038751;28;25077;-74
2023/03/09 00:06:49;;;;;;;18.58;8.35;;;0.70;99.90;;;;;;5038461;28;25093;-74
2023/03/09 00:09:18;;;;;;;19.42;8.63;;;0.70;99.90;;;;;;5038665;28;25081;-74
2023/03/09 00:11:48;;;;;;;18.38;8.93;;;0.70;99.90;;;;;;5038699;28;25054;-74
2023/03/09 00:14:16;;;;;;;18.73;8.80;;;0.70;99.90;;;;;;5038430;28;25102;-74
2023/03/09 00:16:44;;;;;;;20.65;9.23;;;0.70;99.90;;;;;;5038873;28;25060;-74
2023/03/09 00:19:11;;;;;;;18.15;9.00;;;0.70;99.90;;;;;;5038485;28;25071;-74
2023/03/09 00:21:40;;;;;;;20.63;9.13;;;0.70;99.90;;;;;;5038548;28;25125;-74
2023/03/09 00:24:16;;;;;;;20.50;9.23;;;0.70;99.90;;;;;;5038054;28;25150;-74
2023/03/09 00:26:49;;;;;;;22.95;10.07;;;0.60;99.90;;;;;;5038367;28;25149;-74
2023/03/09 00:29:17;;;;;;;20.15;9.70;;;0.70;99.90;;;;;;5020679;28;25051;-74
2023/03/09 00:31:45;;;;;;;22.77;10.23;;;0.70;99.90;;;;;;5037082;28;25081;-74
2023/03/09 00:34:15;;;;;;;16.60;8.35;;;0.60;99.90;;;;;;5038599;28;25131;-74
2023/03/09 00:36:42;;;;;;;16.17;8.02;;;0.60;99.90;;;;;;5037928;28;25089;-74
2023/03/09 00:39:12;;;;;;;15.95;8.43;;;0.60;99.90;;;;;;5038672;28;25103;-74
2023/03/09 00:41:39;;;;;;;16.80;7.80;;;0.70;99.90;;;;;;5038168;28;25117;-74
2023/03/09 00:44:07;;;;;;;17.20;8.13;;;0.60;99.90;;;;;;5038126;28;25122;-74
2023/03/09 00:46:35;;;;;;;15.15;7.65;;;0.60;99.90;;;;;;5037804;28;25099;-74
2023/03/09 00:49:05;;;;;;;19.73;8.20;;;0.60;99.90;;;;;;5038409;28;25118;-74
2023/03/09 00:51:36;;;;;;;15.65;7.65;;;0.60;99.90;;;;;;5038526;28;25276;-74
2023/03/09 00:54:05;;;;;;;16.92;7.57;;;0.60;99.90;;;;;;5037648;28;25050;-74
2023/03/09 00:56:32;;;;;;;16.48;8.00;;;0.60;99.90;;;;;;5037891;28;25124;-74
2023/03/09 00:58:59;;;;;;;17.25;7.10;;;0.60;99.90;;;;;;5020144;28;25054;-74
2023/03/09 01:01:27;;;;;;;17.85;7.97;;;0.60;99.90;;;;;;5037759;28;25071;-74
2023/03/09 01:03:55;;;;;;;15.57;6.78;;;0.60;99.90;;;;;;5037431;28;25102;-74
2023/03/09 01:06:23;;;;;;;14.63;7.00;;;0.60;99.90;;;;;;5037690;28;25063;-74
2023/03/09 01:08:51;;;;;;;13.98;6.60;;;0.60;99.90;;;;;;5037253;28;25058;-74
2023/03/09 01:11:19;;;;;;;13.23;6.55;;;0.60;99.90;;;;;;5037877;28;25094;-74
2023/03/09 01:13:46;;;;;;;13.40;6.63;;;0.60;99.90;;;;;;5037176;28;25055;-74
2023/03/09 01:16:14;;;;;;;13.23;5.63;;;0.60;99.90;;;;;;5037220;28;25047;-74
2023/03/09 01:18:41;;;;;;;16.45;6.50;;;0.60;99.90;;;;;;5037186;28;25090;-74
2023/03/09 01:21:09;;;;;;;13.90;6.07;;;0.60;99.90;;;;;;5037701;28;25077;-74
2023/03/09 01:23:40;;;;;;;12.65;6.20;;;0.60;99.90;;;;;;5037253;28;25060;-74
2023/03/09 01:26:07;;;;;;;14.15;6.15;;;0.60;99.90;;;;;;5037603;28;25103;-74
2023/03/09 01:28:35;;;;;;;12.07;5.45;;;0.60;99.90;;;;;;5037218;28;25163;-74
2023/03/09 01:31:12;;;;;;;14.02;5.88;;;0.60;99.90;;;;;;5036936;28;25078;-74
2023/03/09 01:33:39;;;;;;;13.65;6.18;;;0.60;99.90;;;;;;5037363;28;25074;-74
2023/03/09 01:36:08;;;;;;;13.38;6.10;;;0.70;99.90;;;;;;5036847;28;25103;-74
2023/03/09 01:38:35;;;;;;;13.25;6.03;;;0.60;99.90;;;;;;5036849;28;25092;-74
2023/03/09 01:41:03;;;;;;;11.13;5.80;;;0.70;99.90;;;;;;5037328;28;25114;-74
2023/03/09 01:43:39;;;;;;;13.82;5.88;;;0.70;99.90;;;;;;5036445;28;25078;-74
2023/03/09 01:46:15;;;;;;;;;;;0.70;99.90;;;;;;5037152;28;25191;-73
2023/03/09 01:48:43;;;;;;;12.65;6.22;;;0.70;99.90;;;;;;5036928;28;25121;-74
2023/03/09 01:51:10;;;;;;;12.23;5.45;;;0.70;99.90;;;;;;5036648;28;25078;-74
2023/03/09 01:53:37;;;;;;;10.68;5.60;;;0.70;99.90;;;;;;5036777;28;25101;-74
2023/03/09 01:56:05;;;;;;;11.38;6.15;;;0.70;99.90;;;;;;5019028;28;25055;-74
2023/03/09 01:58:34;;;;;;;10.32;5.32;;;0.70;99.90;;;;;;5018982;28;25150;-74
2023/03/09 02:01:01;;;;;;;12.60;5.78;;;0.70;99.90;;;;;;5036743;28;25069;-74
2023/03/09 02:03:36;;;;;;;11.65;5.70;;;0.70;99.90;;;;;;5036489;28;25068;-74
2023/03/09 02:06:13;;;;;;;13.35;6.00;;;0.70;99.90;;;;;;5036689;28;25065;-73
2023/03/09 02:09:01;;;;;;;10.95;5.13;;;0.70;99.90;;;;;;5036361;28;25064;-74
2023/03/09 02:11:28;;;;;;;11.23;5.72;;;0.70;99.90;;;;;;5036364;28;25058;-74
2023/03/09 02:13:55;;;;;;;9.75;4.70;;;0.70;99.90;;;;;;5036324;28;25089;-73
2023/03/09 02:16:23;;;;;;;8.40;4.15;;;0.70;99.90;;;;;;5018780;28;25160;-74
2023/03/09 02:18:50;;;;;;;9.35;4.53;;;0.60;99.90;;;;;;5036954;28;25067;-74
2023/03/09 02:21:28;;;;;;;8.90;4.07;;;0.70;99.90;;;;;;5036759;28;25109;-74
2023/03/09 02:24:17;;;;;;;9.02;4.50;;;0.60;99.90;;;;;;5036276;28;25116;-74
2023/03/09 02:26:51;;;;;;;8.77;4.00;;;0.60;99.90;;;;;;5018681;28;25113;-74
2023/03/09 02:29:18;;;;;;;8.63;4.38;;;0.60;99.90;;;;;;5036924;28;25089;-74
2023/03/09 02:31:45;;;;;;;9.95;4.47;;;0.60;99.90;;;;;;5036152;28;25111;-74
2023/03/09 02:34:12;;;;;;;8.52;4.50;;;0.60;99.90;;;;;;5036158;28;25055;-74
2023/03/09 02:36:40;;;;;;;9.68;4.18;;;0.60;99.90;;;;;;5018602;28;25061;-74
2023/03/09 02:39:31;;;;;;;9.98;4.22;;;0.60;99.90;;;;;;5036770;28;25086;-74
2023/03/09 02:41:58;;;;;;;10.38;4.78;;;0.50;99.90;;;;;;5036620;28;25064;-74
2023/03/09 02:44:27;;;;;;;11.00;4.55;;;0.60;99.90;;;;;;5036520;28;25076;-74
2023/03/09 02:46:54;;;;;;;8.80;4.55;;;0.50;99.90;;;;;;5056432;28;25055;-74
2023/03/09 02:49:21;;;;;;;9.95;4.20;;;0.50;99.90;;;;;;5056442;28;25070;-74
2023/03/09 02:51:48;;;;;;;8.57;4.15;;;0.50;99.90;;;;;;5055919;28;25065;-74
2023/03/09 02:54:16;;;;;;;9.60;4.55;;;0.50;99.90;;;;;;5056937;28;25098;-74
2023/03/09 02:56:43;;;;;;;9.18;4.38;;;0.50;99.90;;;;;;5060512;28;25056;-74
2023/03/09 02:59:10;;;;;;;8.07;3.78;;;0.50;99.90;;;;;;5060341;28;25078;-74
2023/03/09 03:01:37;;;;;;;10.13;4.68;;;0.50;99.90;;;;;;5060284;28;25064;-74
2023/03/09 03:04:04;;;;;;;9.43;4.90;;;0.50;99.90;;;;;;5059874;28;25065;-74
2023/03/09 03:06:31;;;;;;;9.27;4.55;;;0.50;99.90;;;;;;5059899;28;25048;-74
2023/03/09 03:08:59;;;;;;;10.35;5.05;;;0.50;99.90;;;;;;5059591;28;25057;-74
2023/03/09 03:11:26;;;;;;;9.25;4.90;;;0.50;99.90;;;;;;5059297;28;25092;-74
2023/03/09 03:13:54;;;;;;;11.95;5.45;;;0.50;99.90;;;;;;5059689;28;25129;-74
2023/03/09 03:16:22;;;;;;;11.93;5.63;;;0.50;99.90;;;;;;5059418;28;25087;-74
2023/03/09 03:18:49;;;;;;;10.38;5.25;;;0.50;99.90;;;;;;5059768;28;25143;-74
2023/03/09 03:21:17;;;;;;;10.18;5.22;;;0.50;99.90;;;;;;5059633;28;25076;-74
2023/03/09 03:23:44;;;;;;;10.15;5.55;;;0.50;99.90;;;;;;5059767;28;25111;-74
2023/03/09 03:26:12;;;;;;;11.70;5.38;;;0.50;99.90;;;;;;5059831;28;25059;-74
2023/03/09 03:28:39;;;;;;;11.90;5.88;;;0.50;99.90;;;;;;5059223;28;25065;-74
2023/03/09 03:31:07;;;;;;;11.80;5.15;;;0.50;99.90;;;;;;5058106;28;25074;-74
2023/03/09 03:33:34;;;;;;;12.93;5.78;;;0.50;99.90;;;;;;5059324;28;25084;-74
2023/03/09 03:36:01;;;;;;;11.70;6.03;;;0.50;99.90;;;;;;5059108;28;25061;-74
2023/03/09 03:38:29;;;;;;;13.77;6.55;;;0.50;99.90;;;;;;5059093;28;25061;-74
2023/03/09 03:40:57;;;;;;;12.65;6.72;;;0.50;99.90;;;;;;5059610;28;25107;-74
2023/03/09 03:43:24;;;;;;;13.48;6.45;;;0.50;99.90;;;;;;5057216;28;25074;-74
2023/03/09 03:45:52;;;;;;;14.18;7.15;;;0.50;99.90;;;;;;5039211;28;25066;-74
2023/03/09 03:48:19;;;;;;;15.25;6.88;;;0.50;99.90;;;;;;5004960;28;25063;-74
2023/03/09 03:50:46;;;;;;;14.45;7.20;;;0.60;99.90;;;;;;5038944;28;25052;-74
2023/03/09 03:53:13;;;;;;;13.88;6.40;;;0.60;99.90;;;;;;5038916;28;25107;-74
2023/03/09 03:55:41;;;;;;;14.55;6.57;;;0.50;99.90;;;;;;5038789;28;25053;-74
2023/03/09 03:58:08;;;;;;;13.60;6.65;;;0.60;99.90;;;;;;5038759;28;25054;-74
2023/03/09 04:00:35;;;;;;;13.85;6.18;;;0.50;99.90;;;;;;5038674;28;25050;-74
2023/03/09 04:03:02;;;;;;;14.15;6.50;;;0.50;99.90;;;;;;5021036;28;25027;-74
2023/03/09 04:05:30;;;;;;;15.25;6.65;;;0.60;99.90;;;;;;5037762;28;25076;-74
2023/03/09 04:07:57;;;;;;;12.23;5.68;;;0.50;99.90;;;;;;5038368;28;25095;-74
2023/03/09 04:10:24;;;;;;;13.80;6.30;;;0.50;99.90;;;;;;5038488;28;25084;-74
2023/03/09 04:12:52;;;;;;;12.50;5.55;;;0.60;99.90;;;;;;5038489;28;25065;-74
2023/03/09 04:15:19;;;;;;;13.05;6.72;;;0.60;99.90;;;;;;5038434;28;25062;-74
2023/03/09 04:17:47;;;;;;;13.75;6.50;;;0.50;99.90;;;;;;5020806;28;25073;-74
2023/03/09 04:20:15;;;;;;;9.40;4.80;;;0.60;99.90;;;;;;5038516;28;25079;-74
2023/03/09 04:22:42;;;;;;;12.85;6.03;;;0.50;99.90;;;;;;5020736;28;25135;-74
2023/03/09 04:25:10;;;;;;;12.35;6.00;;;0.50;99.90;;;;;;5020685;28;25109;-74
2023/03/09 04:27:37;;;;;;;13.60;6.07;;;0.50;99.90;;;;;;5038327;28;25146;-74
2023/03/09 04:30:05;;;;;;;11.75;5.68;;;0.50;99.90;;;;;;5038818;28;25123;-74
2023/03/09 04:32:32;;;;;;;11.73;5.35;;;0.50;99.90;;;;;;5038064;28;25084;-74
2023/03/09 04:34:59;;;;;;;11.52;5.55;;;0.50;99.90;;;;;;5038098;28;25109;-74
2023/03/09 04:37:26;;;;;;;12.25;5.93;;;0.50;99.90;;;;;;5038040;28;25068;-74
2023/03/09 04:39:54;;;;;;;9.40;5.28;;;0.50;99.90;;;;;;5038129;28;25056;-74
2023/03/09 04:42:21;;;;;;;11.82;5.32;;;0.50;99.90;;;;;;5037896;28;25064;-74
2023/03/09 04:44:48;;;;;;;10.70;5.07;;;0.50;99.90;;;;;;5037895;28;25070;-74
2023/03/09 04:47:16;;;;;;;8.80;4.32;;;0.50;99.90;;;;;;5037609;28;25117;-74
2023/03/09 04:49:43;;;;;;;10.85;4.88;;;0.50;99.90;;;;;;5038199;28;25056;-74
2023/03/09 04:52:11;;;;;;;11.93;5.13;;;0.50;99.90;;;;;;5037702;28;25070;-74
2023/03/09 04:54:39;;;;;;;11.02;5.38;;;0.50;99.90;;;;;;5037773;28;25068;-74
2023/03/09 04:57:06;;;;;;;10.60;4.95;;;0.50;99.90;;;;;;5038182;28;25074;-74
2023/03/09 04:59:33;;;;;;;10.95;5.00;;;0.50;99.90;;;;;;5038016;28;25061;-74
2023/03/09 05:02:00;;;;;;;11.93;5.97;;;0.50;99.90;;;;;;5038069;28;25127;-74
2023/03/09 05:04:28;;;;;;;11.05;5.47;;;0.50;99.90;;;;;;5019956;28;25046;-74
2023/03/09 05:06:55;;;;;;;11.65;5.30;;;0.50;99.90;;;;;;5019800;28;25060;-74
2023/03/09 05:09:22;;;;;;;10.82;5.78;;;0.50;99.90;;;;;;5038101;28;25077;-74
2023/03/09 05:11:51;;;;;;;11.13;5.15;;;0.50;99.90;;;;;;5037352;28;25102;-74
2023/03/09 05:14:20;;;;;;;12.43;5.78;;;0.50;99.90;;;;;;5037587;28;25091;-74
2023/03/09 05:16:54;;;;;;;11.82;6.25;;;0.50;99.90;;;;;;5036914;28;25128;-74
2023/03/09 05:19:22;;;;;;;16.55;7.15;;;0.50;99.90;;;;;;5037409;28;25071;-74
2023/03/09 05:21:49;;;;;;;14.82;6.25;;;0.50;99.90;;;;;;5019610;28;25098;-74
2023/03/09 05:24:16;;;;;;;13.45;6.93;;;0.50;99.90;;;;;;5037108;28;25092;-74
2023/03/09 05:26:44;;;;;;;13.90;6.57;;;0.50;99.90;;;;;;5019767;28;25083;-74
2023/03/09 05:29:12;;;;;;;13.25;6.25;;;0.50;99.90;;;;;;5037082;28;25098;-74
2023/03/09 05:31:39;;;;;;;14.07;6.72;;;0.50;99.90;;;;;;5019725;28;25106;-74
2023/03/09 05:34:07;;;;;;;15.05;7.20;;;0.40;99.90;;;;;;5037610;28;25060;-74
2023/03/09 05:36:34;;;;;;;15.25;6.85;;;0.40;99.90;;;;;;5036870;28;25102;-74
2023/03/09 05:39:01;;;;;;;15.07;7.20;;;0.40;99.90;;;;;;5036913;28;24966;-74
2023/03/09 05:41:29;;;;;;;13.20;5.63;;;0.50;99.90;;;;;;5036854;28;25133;-74
2023/03/09 05:43:59;;;;;;;16.17;7.70;;;0.40;99.90;;;;;;5037265;28;25115;-74
2023/03/09 05:46:26;;;;;;;12.85;6.78;;;0.40;99.90;;;;;;5036755;28;25114;-74
2023/03/09 05:48:54;;;;;;;14.43;6.32;;;0.40;99.90;;;;;;5036685;28;25125;-74
2023/03/09 05:51:21;;;;;;;13.32;7.00;;;0.40;99.90;;;;;;5019121;28;25047;-74
2023/03/09 05:53:48;;;;;;;15.23;7.60;;;0.40;99.90;;;;;;5037036;28;25054;-74
2023/03/09 05:56:15;;;;;;;16.52;7.72;;;0.40;99.90;;;;;;5037386;28;25133;-74
2023/03/09 05:58:43;;;;;;;11.95;6.03;;;0.40;99.90;;;;;;5036539;28;25066;-75
2023/03/09 06:01:23;;;;;;;12.45;6.57;;;0.40;99.90;;;;;;5036498;28;25077;-74
2023/03/09 06:03:50;;;;;;;14.98;7.60;;;0.40;99.90;;;;;;5019084;28;25100;-75
2023/03/09 06:06:18;;;;;;;15.48;6.70;;;0.50;99.90;;;;;;5036428;28;25074;-74
2023/03/09 06:08:47;;;;;;;15.02;6.60;;;0.50;99.90;;;;;;5036329;28;25068;-75
2023/03/09 06:11:14;;;;;;;14.15;6.20;;;0.50;99.90;;;;;;5036367;28;25101;-74
2023/03/09 06:13:42;;;;;;;14.40;7.05;;;0.50;99.90;;;;;;5018969;28;25136;-74
2023/03/09 06:16:15;;;;;;;14.25;6.85;;;0.50;99.90;;;;;;5036300;28;25054;-74
2023/03/09 06:18:43;;;;;;;13.10;7.10;;;0.50;99.90;;;;;;5036861;28;25093;-84
2023/03/09 06:21:10;;;;;;;14.70;6.35;;;0.50;99.90;;;;;;5035711;28;25086;-74
2023/03/09 06:23:38;;;;;;;18.38;6.90;;;0.50;99.90;;;;;;5036438;28;25065;-75
2023/03/09 06:26:07;;;;;;;15.10;6.28;;;0.60;99.90;;;;;;5036778;28;25055;-81
2023/03/09 06:28:34;;;;;;;15.43;6.75;;;0.60;99.90;;;;;;5036532;28;25070;-80
2023/03/09 06:31:07;;;;;;;17.23;8.18;;;0.60;99.90;;;;;;5022495;28;25063;-80
2023/03/09 06:33:34;;;;;;;17.15;7.45;;;0.60;99.90;;;;;;5023172;28;25054;-82
2023/03/09 06:36:02;;;;;;;11.90;6.47;;;0.60;99.90;;;;;;5022959;28;25093;-77
2023/03/09 06:38:30;;;;;;;18.70;8.40;;;0.60;99.90;;;;;;5040528;28;25117;-80
2023/03/09 06:40:58;;;;;;;18.00;8.48;;;0.70;99.90;;;;;;5040223;28;25067;-81
2023/03/09 06:43:25;;;;;;;14.30;7.13;;;0.70;99.90;;;;;;5022131;28;25065;-83
2023/03/09 06:45:53;;;;;;;13.98;7.43;;;0.70;99.90;;;;;;5022562;28;25116;-80
2023/03/09 06:48:21;;;;;;;16.83;8.05;;;0.70;99.90;;;;;;5040581;28;25059;-76
2023/03/09 06:50:48;;;;;;;14.13;7.47;;;0.80;99.90;;;;;;5040007;28;25130;-73
2023/03/09 06:53:16;;;;;;;13.93;6.80;;;0.80;99.90;;;;;;5040108;28;25105;-72
2023/03/09 06:55:44;;;;;;;13.60;6.28;;;0.80;99.90;;;;;;5022600;28;25054;-71
2023/03/09 06:58:11;;;;;;;12.68;6.13;;;0.90;99.90;;;;;;5039960;28;25076;-70
2023/03/09 07:00:40;;;;;;;19.30;7.43;;;0.90;99.90;;;;;;5022208;28;25052;-71
2023/03/09 07:03:15;;;;;;;15.30;6.20;;;0.90;99.90;;;;;;5039800;28;25125;-72
2023/03/09 07:05:43;;;;;;;11.98;5.93;;;0.90;99.90;;;;;;5039896;28;25083;-73
2023/03/09 07:08:10;;;;;;;12.27;6.28;;;1.00;99.90;;;;;;5022065;28;25047;-72
2023/03/09 07:10:37;;;;;;;16.33;5.70;;;1.00;99.90;;;;;;5022100;28;25092;-72
2023/03/09 07:13:12;;;;;;;13.55;6.22;;;1.10;99.90;;;;;;5039913;28;25072;-72
2023/03/09 07:15:39;;;;;;;13.02;6.50;;;1.20;99.90;;;;;;5039835;28;25126;-73
2023/03/09 07:18:10;;;;;;;12.95;6.25;;;1.20;99.90;;;;;;5021892;28;25093;-73
2023/03/09 07:20:41;;;;;;;13.73;6.22;;;1.30;99.90;;;;;;5039471;28;25042;-72
2023/03/09 07:23:11;;;;;;;12.20;6.25;;;1.40;99.90;;;;;;5040072;28;25087;-72
2023/03/09 07:25:38;;;;;;;16.13;7.22;;;1.40;99.90;;;;;;5039671;28;25152;-72
2023/03/09 07:28:07;;;;;;;10.23;5.55;;;1.50;99.90;;;;;;5022104;28;25081;-72
2023/03/09 07:30:55;;;;;;;13.18;6.10;;;1.60;99.90;;;;;;5039245;28;25071;-72
2023/03/09 07:33:23;;;;;;;10.30;5.65;;;1.70;99.90;;;;;;5039672;28;25088;-73
2023/03/09 07:35:51;;;;;;;13.32;6.65;;;1.70;99.90;;;;;;5039197;28;25090;-73
2023/03/09 07:38:19;;;;;;;9.80;5.05;;;1.70;99.90;;;;;;5039184;28;25288;-72
2023/03/09 07:40:47;;;;;;;13.35;7.07;;;1.70;99.90;;;;;;5021273;28;25137;-73
2023/03/09 07:43:14;;;;;;;13.23;6.30;;;1.70;99.90;;;;;;5039414;28;25052;-73
2023/03/09 07:45:42;;;;;;;12.10;6.63;;;1.60;99.90;;;;;;5040831;28;25064;-72
2023/03/09 07:48:11;;;;;;;17.88;8.07;;;1.60;99.90;;;;;;5038821;28;25058;-73
2023/03/09 07:50:39;;;;;;;19.30;9.90;;;1.60;99.90;;;;;;5039471;28;25070;-72
2023/03/09 07:53:06;;;;;;;16.60;8.50;;;1.70;99.90;;;;;;5039129;28;25069;-73
2023/03/09 07:55:34;;;;;;;12.00;6.32;;;1.70;99.90;;;;;;5039470;28;25067;-73
2023/03/09 07:58:02;;;;;;;14.73;6.50;;;1.80;99.90;;;;;;5038961;28;25083;-73
2023/03/09 08:00:32;;;;;;;12.27;6.35;;;1.80;99.90;;;;;;5038790;28;25090;-73
2023/03/09 08:03:00;;;;;;;13.13;6.65;;;1.80;99.90;;;;;;5038635;28;25066;-73
2023/03/09 08:05:27;;;;;;;11.07;5.88;;;1.80;99.90;;;;;;5038847;28;25067;-73
2023/03/09 08:07:55;;;;;;;13.85;6.18;;;1.80;99.90;;;;;;5020937;28;25060;-72
2023/03/09 08:10:23;;;;;;;10.95;5.75;;;1.90;99.90;;;;;;5038579;28;25119;-73
2023/03/09 08:12:51;;;;;;;12.30;6.60;;;1.90;99.90;;;;;;5038500;28;25093;-72
2023/03/09 08:15:19;;;;;;;12.68;6.72;;;2.00;99.90;;;;;;5039571;28;25099;-72
2023/03/09 08:17:46;;;;;;;13.55;6.60;;;2.00;99.90;;;;;;5038589;28;25060;-72
2023/03/09 08:20:14;;;;;;;13.48;7.57;;;2.10;99.90;;;;;;5038390;28;25081;-72
2023/03/09 08:22:42;;;;;;;11.25;6.13;;;2.20;99.90;;;;;;5038930;28;25058;-72
2023/03/09 08:25:10;;;;;;;12.52;5.85;;;2.30;99.90;;;;;;5038295;28;25077;-72
2023/03/09 08:27:48;;;;;;;11.95;5.95;;;2.40;99.90;;;;;;5038446;28;25083;-72
2023/03/09 08:30:19;;;;;;;11.80;5.72;;;2.60;99.90;;;;;;5038210;28;25137;-72
2023/03/09 08:32:48;;;;;;;11.52;5.82;;;2.60;99.90;;;;;;5039011;28;25101;-72
2023/03/09 08:35:17;;;;;;;11.02;5.93;;;2.60;99.90;;;;;;5038079;28;25065;-72
2023/03/09 08:37:45;;;;;;;10.65;6.65;;;2.60;99.90;;;;;;5020677;28;25083;-72
2023/03/09 08:40:14;;;;;;;11.15;6.43;;;2.70;99.90;;;;;;5038026;28;25056;-72
2023/03/09 08:42:42;;;;;;;12.55;6.13;;;2.80;99.90;;;;;;5038040;28;25137;-73
2023/03/09 08:45:11;;;;;;;12.60;6.70;;;2.80;99.90;;;;;;5037695;28;25071;-73
2023/03/09 08:47:39;;;;;;;11.52;6.28;;;2.90;99.90;;;;;;5037796;28;25079;-73
2023/03/09 08:50:08;;;;;;;12.25;6.05;;;3.00;99.90;;;;;;5037806;28;25062;-73
2023/03/09 08:52:37;;;;;;;14.52;7.63;;;3.00;99.90;;;;;;5003438;28;25121;-72
2023/03/09 08:55:07;;;;;;;11.30;6.18;;;3.00;99.90;;;;;;5038219;28;25124;-73
2023/03/09 08:57:35;;;;;;;13.00;7.05;;;3.00;99.90;;;;;;5038204;28;25128;-73
2023/03/09 09:00:03;;;;;;;14.27;7.53;;;3.20;99.90;;;;;;5037770;28;25085;-73
2023/03/09 09:02:31;;;;;;;16.00;7.20;;;3.20;99.90;;;;;;5038147;28;25066;-73
2023/03/09 09:04:58;;;;;;;12.35;6.70;;;3.30;99.90;;;;;;5037702;28;25057;-73
2023/03/09 09:07:25;;;;;;;13.05;7.32;;;3.30;99.90;;;;;;5037911;28;25049;-73
2023/03/09 09:09:54;;;;;;;11.93;6.57;;;3.40;99.90;;;;;;5019935;28;25071;-73
2023/03/09 09:12:25;;;;;;;13.35;7.10;;;3.40;99.90;;;;;;5037425;28;25098;-73
2023/03/09 09:14:54;;;;;;;14.95;6.65;;;3.50;99.90;;;;;;5037779;28;25048;-73
2023/03/09 09:17:22;;;;;;;13.93;6.95;;;3.60;99.90;;;;;;5037572;28;25113;-73
2023/03/09 09:19:51;;;;;;;12.95;6.95;;;3.60;99.90;;;;;;5019732;28;25069;-73
2023/03/09 09:22:18;;;;;;;12.48;6.20;;;3.60;99.90;;;;;;5036936;28;25068;-73
2023/03/09 09:24:46;;;;;;;11.75;6.30;;;3.70;99.90;;;;;;5019836;28;25065;-73
2023/03/09 09:27:13;;;;;;;13.20;6.78;;;3.70;99.90;;;;;;5037016;28;25064;-73
2023/03/09 09:29:40;;;;;;;13.30;6.72;;;3.70;99.90;;;;;;5019552;28;25095;-73
2023/03/09 09:32:09;;;;;;;11.70;6.82;;;3.80;99.90;;;;;;5037325;28;25135;-73
2023/03/09 09:34:36;;;;;;;12.27;6.68;;;3.90;99.90;;;;;;5020032;28;25096;-73
2023/03/09 09:37:05;;;;;;;12.80;7.30;;;3.90;99.90;;;;;;5036745;28;25111;-73
2023/03/09 09:39:33;;;;;;;13.52;6.55;;;3.90;99.90;;;;;;5037248;28;25106;-73
2023/03/09 09:42:17;;;;;;;11.68;6.53;;;4.00;99.90;;;;;;5037136;28;25056;-73
2023/03/09 09:44:47;;;;;;;14.52;6.80;;;4.10;99.90;;;;;;5036891;28;25099;-73
2023/03/09 09:47:28;;;;;;;12.95;7.15;;;4.20;99.90;;;;;;5037235;28;25092;-73
2023/03/09 09:49:59;;;;;;;12.27;6.88;;;4.30;99.90;;;;;;5038016;28;25085;-73
2023/03/09 09:52:48;;;;;;;12.48;7.05;;;4.40;99.90;;;;;;5036661;28;25089;-73
2023/03/09 09:55:22;;;;;;;13.32;7.32;;;4.50;99.90;;;;;;5036621;28;25064;-73
2023/03/09 09:58:16;;;;;;;15.77;7.95;;;4.70;99.90;;;;;;5036918;28;25078;-73
2023/03/09 10:00:51;;;;;;;16.65;7.82;;;4.80;99.90;;;;;;5036551;28;25064;-73
2023/03/09 10:03:31;;;;;;;17.30;8.25;;;4.90;99.90;;;;;;5036763;28;25073;-73
2023/03/09 10:06:20;;;;;;;14.00;7.10;;;5.00;99.90;;;;;;5036511;28;25086;-73
2023/03/09 10:09:07;;;;;;;13.18;6.93;;;5.00;99.90;;;;;;5036380;28;25074;-73
2023/03/09 10:11:46;;;;;;;15.90;8.05;;;5.10;99.90;;;;;;5018907;28;25127;-74
2023/03/09 10:14:30;;;;;;;15.13;7.70;;;5.10;99.90;;;;;;5037292;28;25133;-73
2023/03/09 10:17:22;;;;;;;15.73;8.07;;;5.20;99.90;;;;;;5036916;28;25056;-73
2023/03/09 10:19:50;;;;;;;17.38;9.13;;;5.20;99.90;;;;;;5036435;28;25086;-73
2023/03/09 10:22:23;;;;;;;15.90;8.38;;;5.30;99.90;;;;;;5036309;28;25084;-73
2023/03/09 10:24:52;;;;;;;17.02;8.07;;;5.30;99.90;;;;;;5036875;28;25066;-73
2023/03/09 10:27:31;;;;;;;15.63;8.80;;;5.30;99.90;;;;;;5036152;28;25117;-73
2023/03/09 10:30:20;;;;;;;13.48;7.20;;;5.30;99.90;;;;;;5036970;28;25104;-73
2023/03/09 10:32:59;;;;;;;15.27;7.95;;;5.30;99.90;;;;;;5018730;28;25069;-73
2023/03/09 10:35:36;;;;;;;14.90;7.18;;;5.30;99.90;;;;;;5036439;28;25068;-73
2023/03/09 10:38:03;;;;;;;15.65;7.80;;;5.40;99.90;;;;;;5037516;28;25100;-73
2023/03/09 10:40:45;;;;;;;12.18;6.50;;;5.60;99.90;;;;;;5036163;28;25060;-73
2023/03/09 10:43:30;;;;;;;12.40;7.10;;;5.70;99.90;;;;;;5036717;28;25057;-73
2023/03/09 10:46:20;;;;;;;14.27;7.38;;;5.70;99.90;;;;;;5056324;28;25075;-73
2023/03/09 10:48:49;;;;;;;15.50;7.80;;;5.70;99.90;;;;;;5056509;28;25069;-74
2023/03/09 10:51:30;;;;;;;14.40;8.02;;;5.80;99.90;;;;;;5055978;28;25067;-73
2023/03/09 10:54:19;;;;;;;13.45;7.20;;;5.90;99.90;;;;;;5055917;28;25117;-73
2023/03/09 10:56:47;;;;;;;13.15;6.97;;;5.90;99.90;;;;;;5054479;28;25063;-73
2023/03/09 10:59:19;;;;;;;15.13;7.68;;;5.90;99.90;;;;;;5056059;28;25065;-73
2023/03/09 11:01:52;;;;;;;12.25;7.20;;;5.90;99.90;;;;;;5038236;28;25131;-73
2023/03/09 11:04:27;;;;;;;12.88;6.53;;;5.90;99.90;;;;;;5038216;28;25121;-73
2023/03/09 11:06:59;;;;;;;14.52;6.80;;;6.00;99.90;;;;;;5056354;28;25091;-73
2023/03/09 11:09:35;;;;;;;11.73;6.95;;;6.10;99.90;;;;;;5038219;28;25066;-73
2023/03/09 11:12:38;;;;;;;12.75;6.88;;;6.10;99.90;;;;;;5038067;28;25082;-73
2023/03/09 11:15:30;;;;;;;18.30;7.72;;;6.10;99.90;;;;;;5056199;28;25159;-73
2023/03/09 11:17:59;;;;;;;15.50;7.45;;;6.00;99.90;;;;;;5058232;28;25119;-73
2023/03/09 11:20:37;;;;;;;13.98;7.00;;;6.00;99.90;;;;;;5041708;28;25048;-73
2023/03/09 11:23:32;;;;;;;13.30;7.10;;;6.00;99.90;;;;;;5041638;28;25062;-76
2023/03/09 11:26:18;;;;;;;14.38;7.60;;;5.90;99.90;;;;;;5059630;28;25061;-73
2023/03/09 11:29:02;;;;;;;16.17;7.70;;;5.90;99.90;;;;;;5059485;28;25101;-75
2023/03/09 11:31:38;;;;;;;17.25;8.13;;;5.80;99.90;;;;;;5044238;28;25115;-76
2023/03/09 11:34:13;;;;;;;16.75;7.57;;;5.80;99.90;;;;;;5046121;28;25111;-77
2023/03/09 11:37:17;;;;;;;16.33;7.53;;;5.80;99.90;;;;;;5063322;28;25056;-76
2023/03/09 11:39:57;;;;;;;19.52;9.40;;;5.80;99.90;;;;;;5061927;28;25126;-75
2023/03/09 11:42:45;;;;;;;16.25;7.55;;;5.80;99.90;;;;;;5063359;28;25084;-76
2023/03/09 11:45:22;;;;;;;16.48;7.80;;;5.80;99.90;;;;;;5045806;28;25094;-74
2023/03/09 11:48:04;;;;;;;16.30;7.50;;;5.80;99.90;;;;;;5038951;28;25065;-75
2023/03/09 11:50:44;;;;;;;13.82;7.20;;;5.80;99.90;;;;;;5039211;28;25053;-75
2023/03/09 11:53:24;;;;;;;15.15;7.57;;;5.80;99.90;;;;;;5021401;28;25056;-75
2023/03/09 11:56:14;;;;;;;15.25;8.02;;;5.90;99.90;;;;;;5039121;28;25052;-75
2023/03/09 11:58:44;;;;;;;13.15;6.53;;;5.90;99.90;;;;;;5039082;28;25055;-75
2023/03/09 12:01:33;;;;;;;12.93;6.35;;;5.90;99.90;;;;;;5021152;28;25113;-75
2023/03/09 12:04:04;;;;;;;13.90;6.80;;;5.80;99.90;;;;;;5021320;28;25128;-75
2023/03/09 12:06:35;;;;;;;13.18;6.55;;;5.60;99.90;;;;;;5038866;28;25056;-73
2023/03/09 12:09:08;;;;;;;19.90;8.70;;;5.50;99.90;;;;;;5021009;28;25094;-73
2023/03/09 12:11:54;;;;;;;16.35;7.35;;;5.30;99.90;;;;;;5038553;28;25057;-73
2023/03/09 12:14:53;;;;;;;14.65;6.85;;;5.20;99.90;;;;;;5038716;28;25148;-73
2023/03/09 12:17:27;;;;;;;15.38;7.30;;;5.10;99.90;;;;;;5029623;28;25084;-73
2023/03/09 12:19:55;;;;;;;16.27;7.38;;;4.90;99.90;;;;;;5038325;28;25056;-73
2023/03/09 12:22:38;;;;;;;16.63;8.07;;;4.80;99.90;;;;;;5038634;28;25113;-73
2023/03/09 12:25:18;;;;;;;15.80;7.72;;;4.80;99.90;;;;;;5020875;28;25059;-73
2023/03/09 12:28:16;;;;;;;16.98;7.63;;;4.60;99.90;;;;;;5037170;28;25110;-72
2023/03/09 12:30:55;;;;;;;15.57;7.45;;;4.60;99.90;;;;;;5038647;28;25074;-72
2023/03/09 12:33:44;;;;;;;16.75;7.28;;;4.50;99.90;;;;;;5038601;28;25068;-73
2023/03/09 12:36:31;;;;;;;15.82;7.28;;;4.40;99.90;;;;;;5038367;28;25051;-73
2023/03/09 12:39:23;;;;;;;16.90;7.60;;;4.30;99.90;;;;;;5038313;28;25096;-73
2023/03/09 12:41:59;;;;;;;16.20;8.18;;;4.20;99.90;;;;;;5038489;28;24917;-73
2023/03/09 12:45:01;;;;;;;;;;;4.20;99.90;;;;;;5038478;28;25081;-72
2023/03/09 12:47:36;;;;;;;15.77;7.10;;;4.20;99.90;;;;;;4958134;29;25073;-73
2023/03/09 12:50:26;;;;;;;16.67;7.40;;;4.10;99.90;;;;;;5026113;28;25061;-73
2023/03/09 12:52:58;;;;;;;17.83;7.55;;;4.10;99.90;;;;;;5036471;28;25104;-73
2023/03/09 12:55:37;;;;;;;16.08;6.75;;;4.10;99.90;;;;;;5037648;28;25145;-72
2023/03/09 12:58:29;;;;;;;19.38;7.68;;;4.20;99.90;;;;;;5038067;28;25127;-72
2023/03/09 13:01:32;;;;;;;20.80;7.40;;;4.10;99.90;;;;;;5020040;28;25140;-73
2023/03/09 13:04:22;;;;;;;19.38;7.40;;;4.10;99.90;;;;;;5037115;28;25093;-72
2023/03/09 13:06:56;;;;;;;18.42;7.63;;;4.10;99.90;;;;;;5019913;28;25114;-73
2023/03/09 13:09:39;;;;;;;15.38;7.70;;;4.10;99.90;;;;;;5037766;28;25089;-75
2023/03/09 13:12:33;;;;;;;17.17;7.32;;;4.20;99.90;;;;;;5037900;28;25111;-75